createdAt,value
2022-08-25T00:00:50.775Z,89.09
2022-08-25T00:03:26.723Z,89.15
2022-08-25T00:06:03.030Z,89.23
2022-08-25T00:08:42.139Z,89.31
2022-08-25T00:11:22.905Z,89.41
2022-08-25T00:14:06.076Z,89.44
2022-08-25T00:16:43.500Z,89.49
2022-08-25T00:19:23.838Z,89.58
2022-08-25T00:22:00.837Z,89.64
2022-08-25T00:24:38.224Z,89.66
2022-08-25T00:27:14.228Z,89.73
2022-08-25T00:29:50.672Z,89.79
2022-08-25T00:32:27.182Z,89.92
2022-08-25T00:35:03.869Z,90.01
2022-08-25T00:37:39.761Z,90.13
2022-08-25T00:40:17.094Z,90.27
2022-08-25T00:42:54.617Z,90.37
2022-08-25T00:45:31.685Z,90.49
2022-08-25T00:48:08.576Z,90.63
2022-08-25T00:50:44.538Z,90.74
2022-08-25T00:53:21.289Z,90.86
2022-08-25T00:55:57.906Z,90.93
2022-08-25T00:58:37.758Z,90.97
2022-08-25T01:01:15.192Z,90.99
2022-08-25T01:03:51.593Z,91.01
2022-08-25T01:06:28.577Z,91.04
2022-08-25T01:09:04.751Z,91.06
2022-08-25T01:11:41.621Z,91.05
2022-08-25T01:14:22.166Z,91.09
2022-08-25T01:16:59.430Z,91.11
2022-08-25T01:19:35.944Z,91.18
2022-08-25T01:22:12.609Z,91.20
2022-08-25T01:24:57.687Z,91.21
2022-08-25T01:27:33.796Z,91.22
2022-08-25T01:30:12.756Z,91.23
2022-08-25T01:32:49.518Z,91.28
2022-08-25T01:35:25.705Z,91.28
2022-08-25T01:38:02.785Z,91.30
2022-08-25T01:40:41.066Z,91.28
2022-08-25T01:43:39.335Z,91.22
2022-08-25T01:46:15.415Z,91.27
2022-08-25T01:48:51.761Z,91.30
2022-08-25T01:51:35.334Z,91.36
2022-08-25T01:54:11.723Z,91.38
2022-08-25T01:56:48.046Z,91.43
2022-08-25T01:59:25.562Z,91.47
2022-08-25T02:02:01.540Z,91.49
2022-08-25T02:04:44.307Z,91.51
2022-08-25T02:07:21.599Z,91.55
2022-08-25T02:09:58.771Z,91.56
2022-08-25T02:12:37.750Z,91.56
2022-08-25T02:15:15.656Z,91.52
2022-08-25T02:17:51.848Z,91.55
2022-08-25T02:20:29.026Z,91.56
2022-08-25T02:23:05.456Z,91.57
2022-08-25T02:25:42.986Z,91.60
2022-08-25T02:28:20.030Z,91.60
2022-08-25T02:31:01.226Z,91.60
2022-08-25T02:33:38.246Z,91.62
2022-08-25T02:36:14.876Z,91.69
2022-08-25T02:38:51.405Z,91.67
2022-08-25T02:41:31.622Z,91.68
2022-08-25T02:44:10.064Z,91.69
2022-08-25T02:46:46.002Z,91.73
2022-08-25T02:49:22.034Z,91.74
2022-08-25T02:51:59.346Z,91.73
2022-08-25T02:54:35.607Z,91.75
2022-08-25T02:57:13.589Z,91.79
2022-08-25T02:59:50.139Z,91.81
2022-08-25T03:02:26.523Z,91.82
2022-08-25T03:05:02.677Z,91.78
2022-08-25T03:07:39.890Z,91.76
2022-08-25T03:10:22.108Z,91.73
2022-08-25T03:12:58.108Z,91.72
2022-08-25T03:15:37.820Z,91.71
2022-08-25T03:18:14.247Z,91.67
2022-08-25T03:20:50.548Z,91.68
2022-08-25T03:23:27.100Z,91.65
2022-08-25T03:26:29.605Z,91.62
2022-08-25T03:29:07.234Z,91.56
2022-08-25T03:31:44.953Z,91.56
2022-08-25T03:34:23.927Z,91.54
2022-08-25T03:37:00.921Z,91.53
2022-08-25T03:39:37.118Z,91.53
2022-08-25T03:42:13.632Z,91.58
2022-08-25T03:44:49.569Z,91.59
2022-08-25T03:47:26.687Z,91.59
2022-08-25T03:50:02.682Z,91.61
2022-08-25T03:52:42.445Z,91.63
2022-08-25T03:55:19.649Z,91.64
2022-08-25T03:57:56.750Z,91.65
2022-08-25T04:00:32.792Z,91.65
2022-08-25T04:03:09.145Z,91.64
2022-08-25T04:05:46.125Z,91.71
2022-08-25T04:08:22.623Z,91.74
2022-08-25T04:10:58.649Z,91.74
2022-08-25T04:13:34.658Z,91.72
2022-08-25T04:16:19.030Z,91.83
2022-08-25T04:18:57.124Z,91.86
2022-08-25T04:21:34.961Z,91.83
2022-08-25T04:24:14.249Z,91.71
2022-08-25T04:26:53.840Z,91.47
2022-08-25T04:29:30.430Z,91.09
2022-08-25T04:32:07.144Z,90.61
2022-08-25T04:34:43.618Z,90.31
2022-08-25T04:37:19.950Z,89.74
2022-08-25T04:39:55.935Z,89.21
2022-08-25T04:42:32.283Z,88.31
2022-08-25T04:45:10.537Z,87.27
2022-08-25T04:47:46.610Z,86.16
2022-08-25T04:50:22.762Z,84.71
2022-08-25T04:52:59.250Z,83.69
2022-08-25T04:55:40.813Z,82.40
2022-08-25T04:58:16.697Z,81.24
2022-08-25T05:00:52.891Z,80.97
2022-08-25T05:03:28.974Z,78.29
2022-08-25T05:06:06.267Z,76.71
2022-08-25T05:08:42.515Z,75.12
2022-08-25T05:11:23.617Z,73.59
2022-08-25T05:14:03.091Z,71.27
2022-08-25T05:16:39.762Z,70.22
2022-08-25T05:19:16.157Z,68.97
2022-08-25T05:21:52.456Z,67.28
2022-08-25T05:24:29.726Z,65.84
2022-08-25T05:27:06.601Z,64.13
2022-08-25T05:29:42.664Z,62.80
2022-08-25T05:32:18.617Z,61.52
2022-08-25T05:34:54.885Z,59.63
2022-08-25T05:37:30.880Z,58.71
2022-08-25T05:40:09.408Z,57.71
2022-08-25T05:42:45.538Z,57.04
2022-08-25T05:45:22.508Z,56.34
2022-08-25T05:47:58.892Z,55.40
2022-08-25T05:50:34.827Z,55.13
2022-08-25T05:53:10.680Z,53.95
2022-08-25T05:55:50.773Z,52.74
2022-08-25T05:58:28.961Z,52.08
2022-08-25T06:01:19.558Z,51.53
2022-08-25T06:03:55.967Z,50.82
2022-08-25T06:06:32.346Z,50.59
2022-08-25T06:09:10.601Z,49.56
2022-08-25T06:11:46.751Z,48.96
2022-08-25T06:14:23.369Z,47.85
2022-08-25T06:17:00.505Z,46.48
2022-08-25T06:19:37.114Z,46.57
2022-08-25T06:22:15.992Z,45.64
2022-08-25T06:24:58.651Z,46.21
2022-08-25T06:27:35.424Z,44.89
2022-08-25T06:30:19.357Z,43.90
2022-08-25T06:33:00.450Z,43.23
2022-08-25T06:35:37.105Z,42.50
2022-08-25T06:38:15.075Z,41.98
2022-08-25T06:40:53.749Z,41.69
2022-08-25T06:43:29.683Z,41.06
2022-08-25T06:46:15.819Z,40.34
2022-08-25T06:48:52.631Z,40.31
2022-08-25T06:51:30.152Z,40.17
2022-08-25T06:54:08.107Z,40.13
2022-08-25T06:56:46.694Z,40.20
2022-08-25T06:59:25.712Z,39.78
2022-08-25T07:02:11.805Z,39.28
2022-08-25T07:04:48.197Z,38.93
2022-08-25T07:07:24.152Z,38.58
2022-08-25T07:10:00.207Z,38.57
2022-08-25T07:12:36.226Z,38.35
2022-08-25T07:15:20.459Z,37.94
2022-08-25T07:17:58.951Z,37.57
2022-08-25T07:20:36.938Z,37.48
2022-08-25T07:23:13.015Z,37.18
2022-08-25T07:25:49.912Z,37.02
2022-08-25T07:28:26.896Z,37.29
2022-08-25T07:31:02.927Z,36.48
2022-08-25T07:34:01.548Z,35.69
2022-08-25T07:36:38.252Z,36.87
2022-08-25T07:39:17.636Z,37.77
2022-08-25T07:41:59.043Z,37.22
2022-08-25T07:44:35.252Z,37.99
2022-08-25T07:47:11.399Z,38.47
2022-08-25T07:49:47.265Z,39.52
2022-08-25T07:52:23.436Z,40.93
2022-08-25T07:54:59.682Z,42.53
2022-08-25T07:57:36.684Z,42.88
2022-08-25T08:00:17.862Z,42.93
2022-08-25T08:02:55.065Z,43.54
2022-08-25T08:05:32.026Z,44.64
2022-08-25T08:08:08.281Z,45.40
2022-08-25T08:13:42.597Z,47.46
2022-08-25T08:16:21.699Z,47.95
2022-08-25T08:18:58.948Z,47.69
2022-08-25T08:21:37.953Z,47.25
2022-08-25T08:24:25.085Z,44.89
2022-08-25T08:27:08.591Z,44.69
2022-08-25T08:29:46.014Z,44.23
2022-08-25T08:32:25.186Z,44.16
2022-08-25T08:35:15.578Z,44.17
2022-08-25T08:37:52.551Z,43.97
2022-08-25T08:40:32.393Z,44.06
2022-08-25T08:43:20.885Z,44.01
2022-08-25T08:45:57.313Z,44.19
2022-08-25T08:48:53.331Z,43.66
2022-08-25T08:51:40.456Z,43.62
2022-08-25T08:54:25.247Z,44.18
2022-08-25T08:57:15.498Z,44.38
2022-08-25T09:00:01.252Z,44.52
2022-08-25T09:02:51.649Z,44.75
2022-08-25T09:05:35.789Z,45.41
2022-08-25T09:08:20.176Z,46.37
2022-08-25T09:11:10.479Z,47.63
2022-08-25T09:14:13.210Z,48.31
2022-08-25T09:17:06.187Z,48.06
2022-08-25T09:20:22.297Z,48.99
2022-08-25T09:23:20.611Z,49.79
2022-08-25T09:26:20.149Z,50.57
2022-08-25T09:29:06.459Z,51.26
2022-08-25T09:31:55.405Z,52.18
2022-08-25T09:34:36.907Z,52.59
2022-08-25T09:37:12.973Z,53.02
2022-08-25T09:39:49.840Z,53.09
2022-08-25T09:42:50.251Z,53.28
2022-08-25T09:45:43.754Z,53.88
2022-08-25T09:48:40.843Z,54.18
2022-08-25T09:51:27.738Z,53.86
2022-08-25T09:54:10.567Z,53.95
2022-08-25T09:56:57.723Z,54.72
2022-08-25T09:59:37.837Z,55.45
2022-08-25T10:02:31.204Z,55.24
2022-08-25T10:05:25.134Z,55.50
2022-08-25T10:08:14.647Z,55.54
2022-08-25T10:10:57.546Z,56.04
2022-08-25T10:13:46.856Z,55.57
2022-08-25T10:16:36.486Z,56.10
2022-08-25T10:19:24.695Z,55.95
2022-08-25T10:22:27.373Z,56.24
2022-08-25T10:25:05.054Z,55.94
2022-08-25T10:27:53.853Z,56.31
2022-08-25T10:30:46.460Z,55.98
2022-08-25T10:33:40.455Z,56.55
2022-08-25T10:36:30.241Z,56.66
2022-08-25T10:39:34.649Z,56.92
2022-08-25T10:42:25.973Z,56.84
2022-08-25T10:45:41.655Z,56.45
2022-08-25T10:48:53.808Z,56.38
2022-08-25T10:51:57.633Z,55.97
2022-08-25T10:54:51.340Z,56.04
2022-08-25T10:57:52.818Z,55.99
2022-08-25T11:00:38.362Z,55.95
2022-08-25T11:03:44.667Z,56.29
2022-08-25T11:06:29.531Z,57.02
2022-08-25T11:09:14.157Z,57.04
2022-08-25T11:11:57.746Z,56.25
2022-08-25T11:14:41.664Z,56.83
2022-08-25T11:17:25.410Z,57.37
2022-08-25T11:20:16.341Z,57.22
2022-08-25T11:23:18.609Z,57.38
2022-08-25T11:26:01.889Z,56.49
2022-08-25T11:28:53.759Z,56.51
2022-08-25T11:31:31.044Z,56.06
2022-08-25T11:34:09.920Z,56.82
2022-08-25T11:36:54.066Z,56.72
2022-08-25T11:39:59.369Z,57.09
2022-08-25T11:42:55.962Z,57.87
2022-08-25T11:46:12.802Z,57.50
2022-08-25T11:49:13.547Z,57.20
2022-08-25T11:51:53.722Z,57.16
2022-08-25T11:54:36.724Z,57.32
2022-08-25T11:57:26.412Z,57.28
2022-08-25T12:00:36.410Z,56.65
2022-08-25T12:03:53.568Z,56.24
2022-08-25T12:06:36.933Z,56.47
2022-08-25T12:09:26.756Z,55.48
2022-08-25T12:12:32.886Z,55.53
2022-08-25T12:15:27.250Z,56.08
2022-08-25T12:18:45.958Z,55.68
2022-08-25T12:21:38.525Z,55.97
2022-08-25T12:24:25.796Z,55.04
2022-08-25T12:27:09.578Z,54.95
2022-08-25T12:29:51.832Z,55.24
2022-08-25T12:33:02.997Z,55.08
2022-08-25T12:35:57.048Z,55.47
2022-08-25T12:38:50.891Z,55.73
2022-08-25T12:41:33.730Z,55.76
2022-08-25T12:44:41.551Z,55.04
2022-08-25T12:47:34.044Z,54.53
2022-08-25T12:50:40.410Z,54.70
2022-08-25T12:53:31.851Z,54.18
2022-08-25T12:56:20.004Z,54.57
2022-08-25T12:59:18.338Z,53.80
2022-08-25T13:02:39.977Z,53.37
2022-08-25T13:06:14.061Z,53.07
2022-08-25T13:09:34.595Z,52.51
2022-08-25T13:12:23.507Z,52.71
2022-08-25T13:15:01.508Z,52.90
2022-08-25T13:17:39.765Z,53.63
2022-08-25T13:20:29.259Z,52.15
2022-08-25T13:23:05.624Z,53.05
2022-08-25T13:25:52.135Z,52.85
2022-08-25T13:28:34.827Z,51.89
2022-08-25T13:31:22.282Z,51.50
2022-08-25T13:34:03.042Z,51.35
2022-08-25T13:37:06.561Z,51.36
2022-08-25T13:39:56.484Z,51.93
2022-08-25T13:42:36.583Z,52.26
2022-08-25T13:45:19.766Z,52.07
2022-08-25T13:47:58.104Z,52.18
2022-08-25T13:50:41.153Z,51.76
2022-08-25T13:53:30.384Z,51.29
2022-08-25T13:56:08.855Z,50.96
2022-08-25T13:58:48.298Z,51.48
2022-08-25T14:01:48.043Z,51.58
2022-08-25T14:04:50.740Z,50.84
2022-08-25T14:07:35.398Z,50.29
2022-08-25T14:10:35.372Z,51.11
2022-08-25T14:13:32.049Z,51.01
2022-08-25T14:16:23.308Z,51.19
2022-08-25T14:19:04.533Z,50.96
2022-08-25T14:21:42.127Z,50.91
2022-08-25T14:24:24.396Z,51.23
2022-08-25T14:27:00.624Z,51.19
2022-08-25T14:29:41.095Z,51.08
2022-08-25T14:32:19.180Z,51.63
2022-08-25T14:34:55.346Z,50.79
2022-08-25T14:37:32.522Z,50.28
2022-08-25T14:40:14.139Z,50.85
2022-08-25T14:42:51.317Z,50.52
2022-08-25T14:45:27.757Z,50.48
2022-08-25T14:48:11.782Z,50.57
2022-08-25T14:50:49.218Z,50.30
2022-08-25T14:53:27.890Z,50.96
2022-08-25T14:56:09.185Z,50.79
2022-08-25T14:58:50.904Z,50.83
2022-08-25T15:01:30.089Z,50.30
2022-08-25T15:04:15.667Z,50.27
2022-08-25T15:06:57.695Z,50.53
2022-08-25T15:09:34.189Z,50.92
2022-08-25T15:12:12.559Z,51.02
2022-08-25T15:14:53.804Z,51.42
2022-08-25T15:17:30.290Z,51.94
2022-08-25T15:20:08.763Z,51.99
2022-08-25T15:22:48.263Z,51.75
2022-08-25T15:25:24.710Z,52.17
2022-08-25T15:28:01.185Z,52.20
2022-08-25T15:30:37.857Z,51.95
2022-08-25T15:33:14.319Z,52.24
2022-08-25T15:35:50.200Z,52.55
2022-08-25T15:38:27.806Z,52.79
2022-08-25T15:41:05.189Z,52.79
2022-08-25T15:43:43.350Z,52.96
2022-08-25T15:46:23.929Z,53.11
2022-08-25T15:49:00.623Z,52.99
2022-08-25T15:51:37.277Z,52.89
2022-08-25T15:54:14.457Z,52.49
2022-08-25T15:56:50.743Z,52.38
2022-08-25T15:59:28.209Z,52.75
2022-08-25T16:02:04.696Z,52.96
2022-08-25T16:04:53.275Z,53.07
2022-08-25T16:07:29.539Z,52.82
2022-08-25T16:10:07.484Z,52.54
2022-08-25T16:12:43.752Z,52.40
2022-08-25T16:15:23.936Z,52.78
2022-08-25T16:18:01.447Z,52.79
2022-08-25T16:20:46.693Z,53.20
2022-08-25T16:23:25.604Z,53.32
2022-08-25T16:26:04.669Z,53.68
2022-08-25T16:28:43.931Z,53.98
2022-08-25T16:31:22.231Z,54.30
2022-08-25T16:33:59.245Z,54.50
2022-08-25T16:36:35.714Z,54.79
2022-08-25T16:39:12.531Z,55.21
2022-08-25T16:41:51.309Z,55.21
2022-08-25T16:44:27.494Z,55.79
2022-08-25T16:47:04.406Z,56.27
2022-08-25T16:49:45.414Z,56.73
2022-08-25T16:52:39.035Z,57.23
2022-08-25T16:55:17.141Z,58.02
2022-08-25T16:57:59.992Z,58.50
2022-08-25T17:00:38.903Z,58.84
2022-08-25T17:03:15.938Z,59.24
2022-08-25T17:05:52.097Z,59.69
2022-08-25T17:08:31.120Z,60.27
2022-08-25T17:11:15.091Z,60.81
2022-08-25T17:13:55.753Z,61.21
2022-08-25T17:16:35.973Z,61.53
2022-08-25T17:19:15.170Z,61.83
2022-08-25T17:21:51.392Z,62.11
2022-08-25T17:24:29.326Z,62.53
2022-08-25T17:27:08.178Z,63.24
2022-08-25T17:29:44.161Z,63.54
2022-08-25T17:32:20.207Z,63.95
2022-08-25T17:34:56.153Z,64.47
2022-08-25T17:37:32.159Z,65.00
2022-08-25T17:40:11.041Z,64.82
2022-08-25T17:42:47.068Z,65.35
2022-08-25T17:45:23.371Z,65.81
2022-08-25T17:48:00.401Z,65.85
2022-08-25T17:50:37.271Z,66.91
2022-08-25T17:53:17.350Z,67.51
2022-08-25T17:56:02.823Z,68.01
2022-08-25T17:58:39.613Z,68.40
2022-08-25T18:01:46.365Z,69.02
2022-08-25T18:04:23.888Z,69.32
2022-08-25T18:07:03.656Z,69.77
2022-08-25T18:09:40.032Z,69.90
2022-08-25T18:12:17.706Z,69.95
2022-08-25T18:14:56.926Z,69.87
2022-08-25T18:17:35.744Z,70.18
2022-08-25T18:20:16.373Z,70.18
2022-08-25T18:22:55.181Z,70.90
2022-08-25T18:25:35.316Z,71.53
2022-08-25T18:28:12.072Z,71.98
2022-08-25T18:30:48.478Z,72.28
2022-08-25T18:33:25.793Z,71.66
2022-08-25T18:36:07.237Z,72.16
2022-08-25T18:39:01.526Z,72.14
2022-08-25T18:41:45.034Z,71.98
2022-08-25T18:44:21.798Z,72.00
2022-08-25T18:46:58.624Z,71.37
2022-08-25T18:49:35.196Z,71.58
2022-08-25T18:52:11.816Z,70.87
2022-08-25T18:54:48.126Z,70.68
2022-08-25T18:57:24.567Z,70.64
2022-08-25T19:00:02.260Z,71.40
2022-08-25T19:02:38.777Z,71.38
2022-08-25T19:05:26.998Z,71.95
2022-08-25T19:08:05.947Z,71.88
2022-08-25T19:10:44.069Z,71.84
2022-08-25T19:13:22.542Z,72.54
2022-08-25T19:15:59.599Z,72.29
2022-08-25T19:18:39.135Z,72.96
2022-08-25T19:21:15.817Z,73.10
2022-08-25T19:23:53.254Z,73.35
2022-08-25T19:26:30.687Z,73.17
2022-08-25T19:29:10.692Z,73.50
2022-08-25T19:31:50.540Z,73.45
2022-08-25T19:34:35.087Z,73.41
2022-08-25T19:37:13.290Z,73.61
2022-08-25T19:39:54.040Z,73.80
2022-08-25T19:42:37.110Z,74.02
2022-08-25T19:45:16.450Z,74.02
2022-08-25T19:47:54.349Z,74.10
2022-08-25T19:50:32.880Z,74.20
2022-08-25T19:53:10.244Z,74.14
2022-08-25T19:55:49.527Z,73.40
2022-08-25T19:58:25.830Z,72.80
2022-08-25T20:01:02.180Z,72.36
2022-08-25T20:03:39.878Z,72.28
2022-08-25T20:06:16.328Z,71.90
2022-08-25T20:08:58.984Z,72.21
2022-08-25T20:11:38.061Z,72.60
2022-08-25T20:14:15.537Z,73.01
2022-08-25T20:16:51.694Z,73.39
2022-08-25T20:19:27.999Z,73.72
2022-08-25T20:22:04.142Z,74.09
2022-08-25T20:24:55.876Z,74.19
2022-08-25T20:27:39.992Z,74.25
2022-08-25T20:30:22.212Z,74.32
2022-08-25T20:33:01.357Z,74.50
2022-08-25T20:35:38.136Z,74.85
2022-08-25T20:38:15.079Z,74.52
2022-08-25T20:40:51.532Z,74.63
2022-08-25T20:43:29.665Z,74.70
2022-08-25T20:46:09.053Z,74.85
2022-08-25T20:48:45.671Z,74.54
2022-08-25T20:51:23.473Z,74.84
2022-08-25T20:53:59.858Z,75.22
2022-08-25T20:56:36.212Z,75.68
2022-08-25T20:59:12.927Z,76.18
2022-08-25T21:01:49.746Z,75.83
2022-08-25T21:04:30.407Z,75.38
2022-08-25T21:07:07.677Z,75.13
2022-08-25T21:09:45.788Z,74.84
2022-08-25T21:12:22.371Z,75.16
2022-08-25T21:14:58.530Z,75.45
2022-08-25T21:17:34.890Z,75.69
2022-08-25T21:20:13.366Z,75.68
2022-08-25T21:22:49.301Z,75.89
2022-08-25T21:25:26.661Z,76.08
2022-08-25T21:28:02.688Z,76.49
2022-08-25T21:30:44.703Z,76.89
2022-08-25T21:33:26.393Z,77.18
2022-08-25T21:36:05.599Z,77.43
2022-08-25T21:38:42.306Z,77.33
2022-08-25T21:41:23.579Z,77.21
2022-08-25T21:44:01.447Z,77.12
2022-08-25T21:46:39.705Z,77.49
2022-08-25T21:49:16.244Z,77.68
2022-08-25T21:52:02.381Z,77.99
2022-08-25T21:54:40.623Z,78.22
2022-08-25T21:57:19.168Z,78.49
2022-08-25T21:59:59.953Z,78.76
2022-08-25T22:02:37.045Z,79.12
2022-08-25T22:05:15.440Z,78.93
2022-08-25T22:07:54.190Z,78.98
2022-08-25T22:10:30.547Z,79.16
2022-08-25T22:13:06.875Z,79.05
2022-08-25T22:15:42.840Z,79.02
2022-08-25T22:18:18.670Z,78.96
2022-08-25T22:20:55.203Z,79.17
2022-08-25T22:23:32.307Z,79.37
2022-08-25T22:26:17.162Z,79.57
2022-08-25T22:28:59.360Z,79.84
2022-08-25T22:31:37.129Z,80.13
2022-08-25T22:34:13.965Z,80.33
2022-08-25T22:36:50.862Z,80.20
2022-08-25T22:39:36.489Z,79.91
2022-08-25T22:42:16.265Z,79.76
2022-08-25T22:44:54.080Z,79.90
2022-08-25T22:47:29.987Z,79.71
2022-08-25T22:50:07.307Z,79.64
2022-08-25T22:52:43.214Z,79.33
2022-08-25T22:55:22.318Z,79.16
2022-08-25T22:57:58.628Z,79.18
2022-08-25T23:00:34.774Z,79.42
2022-08-25T23:03:11.936Z,79.84
2022-08-25T23:05:48.267Z,80.04
2022-08-25T23:08:38.873Z,80.01
2022-08-25T23:11:18.243Z,79.93
2022-08-25T23:13:57.074Z,80.06
2022-08-25T23:16:34.062Z,80.12
2022-08-25T23:19:13.770Z,80.22
2022-08-25T23:22:07.573Z,80.28
2022-08-25T23:24:48.626Z,80.45
2022-08-25T23:27:25.823Z,80.75
2022-08-25T23:30:01.835Z,80.33
2022-08-25T23:32:37.899Z,79.88
2022-08-25T23:35:14.967Z,79.74
2022-08-25T23:37:51.499Z,79.86
2022-08-25T23:40:28.663Z,79.44
2022-08-25T23:43:04.914Z,79.50
2022-08-25T23:45:41.215Z,79.60
2022-08-25T23:48:18.809Z,79.76
2022-08-25T23:50:55.022Z,79.86
2022-08-25T23:53:31.821Z,79.91
2022-08-25T23:56:08.864Z,80.13
2022-08-25T23:58:45.536Z,80.41
